createdAt,value
2023-02-14T00:01:10.236Z,100.00
2023-02-14T00:04:12.270Z,100.00
2023-02-14T00:07:13.993Z,100.00
2023-02-14T00:10:15.594Z,100.00
2023-02-14T00:13:17.073Z,100.00
2023-02-14T00:16:18.550Z,100.00
2023-02-14T00:19:21.240Z,100.00
2023-02-14T00:22:22.785Z,100.00
2023-02-14T00:25:24.316Z,100.00
2023-02-14T00:28:25.820Z,100.00
2023-02-14T00:31:27.441Z,100.00
2023-02-14T00:34:30.116Z,100.00
2023-02-14T00:41:09.799Z,100.00
2023-02-14T00:44:12.684Z,100.00
2023-02-14T00:47:14.209Z,100.00
2023-02-14T00:50:15.988Z,100.00
2023-02-14T00:53:17.521Z,100.00
2023-02-14T00:56:19.787Z,100.00
2023-02-14T00:59:21.349Z,100.00
2023-02-14T01:02:22.950Z,100.00
2023-02-14T01:05:26.081Z,100.00
2023-02-14T01:08:27.595Z,100.00
2023-02-14T01:11:30.322Z,100.00
2023-02-14T01:14:32.103Z,100.00
2023-02-14T01:17:33.674Z,100.00
2023-02-14T01:20:35.942Z,100.00
2023-02-14T01:23:37.493Z,100.00
2023-02-14T01:26:39.612Z,100.00
2023-02-14T01:29:41.209Z,100.00
2023-02-14T01:32:42.904Z,100.00
2023-02-14T01:35:46.174Z,100.00
2023-02-14T01:38:55.375Z,100.00
2023-02-14T01:41:58.024Z,100.00
2023-02-14T01:45:03.290Z,100.00
2023-02-14T01:48:07.397Z,100.00
2023-02-14T01:51:08.905Z,100.00
2023-02-14T01:54:11.722Z,100.00
2023-02-14T01:57:17.354Z,100.00
2023-02-14T02:00:37.872Z,100.00
2023-02-14T02:03:49.267Z,100.00
2023-02-14T02:06:59.774Z,100.00
2023-02-14T02:10:05.540Z,100.00
2023-02-14T02:13:07.949Z,100.00
2023-02-14T02:16:24.749Z,100.00
2023-02-14T02:19:53.974Z,100.00
2023-02-14T02:23:01.240Z,100.00
2023-02-14T02:26:40.377Z,100.00
2023-02-14T02:30:19.729Z,100.00
2023-02-14T02:33:39.978Z,100.00
2023-02-14T02:36:54.507Z,100.00
2023-02-14T02:40:12.712Z,100.00
2023-02-14T02:43:36.880Z,100.00
2023-02-14T02:47:23.843Z,100.00
2023-02-14T02:50:47.281Z,100.00
2023-02-14T02:53:59.046Z,100.00
2023-02-14T02:57:03.861Z,100.00
2023-02-14T03:00:07.628Z,100.00
2023-02-14T03:03:29.320Z,100.00
2023-02-14T03:06:31.942Z,100.00
2023-02-14T03:09:41.473Z,100.00
2023-02-14T03:13:05.977Z,100.00
2023-02-14T03:16:23.708Z,100.00
2023-02-14T03:20:00.549Z,100.00
2023-02-14T03:23:18.929Z,100.00
2023-02-14T03:26:27.273Z,100.00
2023-02-14T03:29:41.360Z,100.00
2023-02-14T03:33:05.439Z,100.00
2023-02-14T03:36:13.046Z,100.00
2023-02-14T03:39:29.273Z,100.00
2023-02-14T03:42:46.249Z,100.00
2023-02-14T03:46:34.898Z,100.00
2023-02-14T03:49:42.882Z,100.00
2023-02-14T03:52:46.568Z,100.00
2023-02-14T03:55:57.662Z,100.00
2023-02-14T03:59:06.073Z,100.00
2023-02-14T04:02:13.858Z,100.00
2023-02-14T04:05:25.788Z,100.00
2023-02-14T04:08:29.065Z,100.00
2023-02-14T04:11:35.073Z,100.00
2023-02-14T04:14:36.732Z,100.00
2023-02-14T04:17:57.459Z,100.00
2023-02-14T04:21:00.414Z,100.00
2023-02-14T04:24:02.103Z,100.00
2023-02-14T04:27:10.126Z,100.00
2023-02-14T04:30:12.576Z,100.00
2023-02-14T04:33:14.119Z,100.00
2023-02-14T04:36:15.616Z,100.00
2023-02-14T04:39:17.066Z,100.00
2023-02-14T04:42:18.565Z,100.00
2023-02-14T04:45:20.284Z,100.00
2023-02-14T04:48:21.789Z,100.00
2023-02-14T04:51:23.311Z,100.00
2023-02-14T04:54:25.223Z,100.00
2023-02-14T04:57:26.755Z,100.00
2023-02-14T05:00:28.284Z,100.00
2023-02-14T05:03:29.815Z,100.00
2023-02-14T05:06:31.618Z,100.00
2023-02-14T05:09:33.329Z,100.00
2023-02-14T05:12:34.848Z,100.00
2023-02-14T05:15:38.381Z,100.00
2023-02-14T05:18:40.474Z,100.00
2023-02-14T05:21:41.915Z,100.00
2023-02-14T05:24:43.505Z,100.00
2023-02-14T05:27:44.958Z,100.00
2023-02-14T05:30:46.868Z,100.00
2023-02-14T05:33:48.553Z,100.00
2023-02-14T05:36:50.225Z,100.00
2023-02-14T05:39:51.748Z,100.00
2023-02-14T05:42:53.831Z,100.00
2023-02-14T05:45:55.394Z,100.00
2023-02-14T05:48:56.958Z,100.00
2023-02-14T05:51:58.458Z,100.00
2023-02-14T05:54:59.923Z,100.00
2023-02-14T05:58:01.539Z,100.00
2023-02-14T06:01:03.207Z,100.00
2023-02-14T06:04:04.954Z,100.00
2023-02-14T06:07:06.568Z,100.00
2023-02-14T06:10:09.914Z,100.00
2023-02-14T06:13:11.393Z,100.00
2023-02-14T06:16:12.969Z,100.00
2023-02-14T06:19:14.437Z,100.00
2023-02-14T06:22:16.204Z,100.00
2023-02-14T06:25:17.733Z,100.00
2023-02-14T06:28:19.263Z,100.00
2023-02-14T06:31:21.291Z,100.00
2023-02-14T06:34:22.859Z,100.00
2023-02-14T06:37:24.379Z,100.00
2023-02-14T06:40:25.908Z,100.00
2023-02-14T06:43:27.365Z,100.00
2023-02-14T06:46:28.998Z,100.00
2023-02-14T06:49:30.546Z,100.00
2023-02-14T06:52:33.367Z,100.00
2023-02-14T06:55:34.885Z,100.00
2023-02-14T06:58:36.570Z,100.00
2023-02-14T07:01:38.201Z,100.00
2023-02-14T07:04:39.784Z,100.00
2023-02-14T07:07:41.368Z,100.00
2023-02-14T07:10:42.912Z,100.00
2023-02-14T07:13:44.405Z,100.00
2023-02-14T07:16:45.934Z,100.00
2023-02-14T07:19:47.428Z,100.00
2023-02-14T07:22:48.917Z,100.00
2023-02-14T07:25:50.433Z,100.00
2023-02-14T07:28:52.102Z,100.00
2023-02-14T07:31:53.856Z,100.00
2023-02-14T07:34:55.472Z,100.00
2023-02-14T07:37:56.990Z,100.00
2023-02-14T07:40:58.820Z,100.00
2023-02-14T07:44:00.589Z,100.00
2023-02-14T07:47:02.187Z,99.65
2023-02-14T07:50:03.962Z,99.00
2023-02-14T07:53:05.540Z,99.26
2023-02-14T07:56:07.159Z,98.18
2023-02-14T07:59:08.681Z,98.12
2023-02-14T08:02:12.599Z,98.44
2023-02-14T08:05:16.026Z,97.43
2023-02-14T08:08:17.536Z,97.19
2023-02-14T08:11:37.422Z,95.94
2023-02-14T08:14:39.446Z,95.45
2023-02-14T08:17:40.928Z,94.79
2023-02-14T08:20:42.445Z,94.40
2023-02-14T08:23:45.592Z,93.60
2023-02-14T08:26:48.147Z,93.15
2023-02-14T08:29:49.658Z,92.24
2023-02-14T08:32:51.218Z,92.42
2023-02-14T08:35:52.862Z,91.72
2023-02-14T08:38:55.262Z,91.31
2023-02-14T08:41:56.785Z,91.65
2023-02-14T08:44:58.289Z,91.66
2023-02-14T08:48:05.521Z,91.87
2023-02-14T08:51:09.041Z,92.03
2023-02-14T08:54:10.555Z,92.01
2023-02-14T08:57:12.105Z,92.14
2023-02-14T09:00:14.260Z,91.57
2023-02-14T09:03:15.780Z,91.47
2023-02-14T09:06:17.817Z,91.83
2023-02-14T09:09:19.561Z,92.11
2023-02-14T09:16:56.154Z,91.66
2023-02-14T09:19:57.895Z,91.05
2023-02-14T09:22:59.477Z,90.28
2023-02-14T09:26:06.610Z,89.95
2023-02-14T09:29:08.359Z,90.03
2023-02-14T09:32:10.073Z,89.09
2023-02-14T09:35:11.639Z,89.17
2023-02-14T09:38:19.282Z,89.61
2023-02-14T09:41:29.684Z,90.54
2023-02-14T09:44:37.292Z,91.28
2023-02-14T09:48:03.818Z,92.92
2023-02-14T09:51:15.220Z,93.32
2023-02-14T09:54:26.186Z,93.40
2023-02-14T09:58:04.796Z,94.26
2023-02-14T10:01:19.068Z,94.11
2023-02-14T10:04:36.439Z,93.37
2023-02-14T10:07:42.717Z,92.99
2023-02-14T10:10:47.924Z,92.70
2023-02-14T10:13:56.325Z,92.25
2023-02-14T10:17:16.924Z,93.38
2023-02-14T10:20:31.364Z,92.54
2023-02-14T10:23:53.365Z,91.81
2023-02-14T10:27:02.045Z,91.62
2023-02-14T10:30:13.554Z,91.64
2023-02-14T10:33:19.550Z,90.82
2023-02-14T10:36:20.988Z,89.88
2023-02-14T10:39:30.530Z,89.11
2023-02-14T10:42:34.708Z,88.03
2023-02-14T10:45:41.907Z,88.60
2023-02-14T10:49:20.155Z,86.84
2023-02-14T10:52:29.317Z,85.94
2023-02-14T10:55:43.948Z,85.03
2023-02-14T10:58:48.690Z,84.22
2023-02-14T11:01:53.216Z,84.46
2023-02-14T11:04:54.934Z,83.59
2023-02-14T11:07:59.039Z,83.73
2023-02-14T11:11:24.214Z,83.30
2023-02-14T11:14:35.848Z,83.17
2023-02-14T11:17:38.054Z,83.18
2023-02-14T11:20:39.614Z,82.68
2023-02-14T11:23:46.003Z,81.48
2023-02-14T11:26:49.943Z,82.30
2023-02-14T11:29:54.351Z,81.79
2023-02-14T11:32:56.260Z,80.20
2023-02-14T11:35:58.638Z,80.04
2023-02-14T11:39:28.313Z,79.49
2023-02-14T11:42:38.757Z,79.00
2023-02-14T11:45:43.093Z,77.85
2023-02-14T11:49:02.052Z,78.55
2023-02-14T11:52:15.703Z,77.00
2023-02-14T11:55:29.489Z,76.86
2023-02-14T11:58:33.245Z,76.30
2023-02-14T12:01:38.561Z,76.44
2023-02-14T12:04:46.630Z,76.17
2023-02-14T12:07:52.615Z,75.79
2023-02-14T12:11:19.839Z,75.25
2023-02-14T12:14:23.338Z,74.18
2023-02-14T12:17:34.067Z,75.15
2023-02-14T12:20:42.559Z,74.89
2023-02-14T12:23:55.840Z,73.95
2023-02-14T12:27:03.122Z,74.01
2023-02-14T12:30:14.215Z,73.38
2023-02-14T12:33:19.947Z,72.61
2023-02-14T12:36:56.364Z,72.04
2023-02-14T12:40:41.391Z,71.48
2023-02-14T12:43:47.957Z,71.18
2023-02-14T12:47:02.333Z,70.97
2023-02-14T12:50:16.722Z,71.09
2023-02-14T12:53:48.062Z,70.38
2023-02-14T12:57:14.137Z,70.30
2023-02-14T13:00:45.128Z,70.90
2023-02-14T13:04:05.058Z,70.55
2023-02-14T13:07:15.798Z,70.46
2023-02-14T13:10:49.707Z,69.56
2023-02-14T13:14:20.494Z,69.29
2023-02-14T13:17:40.825Z,68.09
2023-02-14T13:20:50.517Z,68.45
2023-02-14T13:23:59.087Z,68.29
2023-02-14T13:27:04.830Z,68.18
2023-02-14T13:30:36.986Z,67.75
2023-02-14T13:33:43.494Z,68.13
2023-02-14T13:36:46.280Z,67.82
2023-02-14T13:39:55.477Z,67.59
2023-02-14T13:42:59.456Z,67.92
2023-02-14T13:46:01.029Z,67.71
2023-02-14T13:49:30.698Z,68.23
2023-02-14T13:52:58.630Z,68.09
2023-02-14T13:56:01.437Z,67.61
2023-02-14T13:59:06.253Z,68.03
2023-02-14T14:02:31.071Z,67.67
2023-02-14T14:05:32.728Z,67.24
2023-02-14T14:08:35.255Z,67.17
2023-02-14T14:11:36.735Z,67.26
2023-02-14T14:14:41.312Z,66.65
2023-02-14T14:17:45.937Z,66.50
2023-02-14T14:20:48.091Z,66.41
2023-02-14T14:24:23.093Z,66.24
2023-02-14T14:27:30.650Z,67.35
2023-02-14T14:30:35.400Z,66.74
2023-02-14T14:33:37.739Z,67.43
2023-02-14T14:36:39.246Z,67.67
2023-02-14T14:39:40.861Z,67.79
2023-02-14T14:42:42.773Z,68.52
2023-02-14T14:45:49.040Z,69.76
2023-02-14T14:48:54.554Z,70.27
2023-02-14T14:51:57.343Z,69.27
2023-02-14T14:55:00.703Z,67.37
2023-02-14T14:58:05.008Z,67.89
2023-02-14T15:01:13.014Z,69.61
2023-02-14T15:04:14.543Z,70.85
2023-02-14T15:07:34.897Z,71.12
2023-02-14T15:10:36.891Z,71.68
2023-02-14T15:13:54.946Z,72.37
2023-02-14T15:17:10.453Z,72.60
2023-02-14T15:20:17.984Z,72.92
2023-02-14T15:23:24.048Z,73.80
2023-02-14T15:26:29.784Z,74.61
2023-02-14T15:29:32.998Z,74.80
2023-02-14T15:32:36.631Z,75.25
2023-02-14T15:35:43.950Z,75.82
2023-02-14T15:38:45.816Z,74.90
2023-02-14T15:41:47.363Z,72.10
2023-02-14T15:44:49.112Z,69.70
2023-02-14T15:47:53.928Z,69.10
2023-02-14T15:50:59.086Z,69.54
2023-02-14T15:54:03.635Z,71.78
2023-02-14T15:57:07.767Z,73.90
2023-02-14T16:00:17.959Z,75.82
2023-02-14T16:03:22.857Z,77.73
2023-02-14T16:06:31.723Z,79.56
2023-02-14T16:09:37.827Z,80.71
2023-02-14T16:12:40.164Z,82.11
2023-02-14T16:15:58.501Z,83.13
2023-02-14T16:19:00.076Z,83.64
2023-02-14T16:22:01.596Z,83.99
2023-02-14T16:25:03.078Z,84.40
2023-02-14T16:28:04.604Z,85.50
2023-02-14T16:31:11.121Z,86.17
2023-02-14T16:34:16.002Z,86.85
2023-02-14T16:37:33.159Z,87.37
2023-02-14T16:40:35.236Z,88.25
2023-02-14T16:43:36.763Z,88.30
2023-02-14T16:46:38.295Z,89.03
2023-02-14T16:49:40.936Z,89.69
2023-02-14T16:52:45.082Z,90.98
2023-02-14T16:55:46.640Z,90.96
2023-02-14T16:58:48.496Z,91.47
2023-02-14T17:01:50.050Z,92.33
2023-02-14T17:04:51.608Z,92.47
2023-02-14T17:07:53.146Z,93.26
2023-02-14T17:10:56.655Z,94.10
2023-02-14T17:13:58.163Z,94.16
2023-02-14T17:17:00.107Z,94.58
2023-02-14T17:20:02.343Z,95.05
2023-02-14T17:23:03.928Z,95.08
2023-02-14T17:26:06.298Z,95.44
2023-02-14T17:29:07.861Z,95.94
2023-02-14T17:32:13.765Z,96.03
2023-02-14T17:35:16.230Z,96.38
2023-02-14T17:38:18.611Z,96.83
2023-02-14T17:41:22.861Z,97.11
2023-02-14T17:44:24.437Z,96.56
2023-02-14T17:47:26.350Z,96.94
2023-02-14T17:50:28.043Z,98.09
2023-02-14T17:53:29.559Z,98.41
2023-02-14T17:56:31.076Z,98.72
2023-02-14T17:59:32.843Z,97.96
2023-02-14T18:02:34.396Z,97.93
2023-02-14T18:05:36.609Z,97.89
2023-02-14T18:08:49.192Z,97.74
2023-02-14T18:11:50.698Z,97.42
2023-02-14T18:14:53.284Z,96.68
2023-02-14T18:17:54.739Z,97.33
2023-02-14T18:20:57.821Z,97.59
2023-02-14T18:24:00.144Z,97.84
2023-02-14T18:27:02.884Z,98.41
2023-02-14T18:30:05.429Z,98.84
2023-02-14T18:33:06.882Z,99.55
2023-02-14T18:36:14.230Z,99.65
2023-02-14T18:39:15.892Z,99.21
2023-02-14T18:42:17.520Z,99.29
2023-02-14T18:45:18.988Z,100.00
2023-02-14T18:48:20.494Z,100.00
2023-02-14T18:51:27.595Z,100.00
2023-02-14T18:54:29.717Z,100.00
2023-02-14T18:57:33.439Z,100.00
2023-02-14T19:00:34.999Z,100.00
2023-02-14T19:03:36.632Z,100.00
2023-02-14T19:06:40.720Z,100.00
2023-02-14T19:09:43.095Z,100.00
2023-02-14T19:12:45.336Z,100.00
2023-02-14T19:15:47.560Z,100.00
2023-02-14T19:18:49.921Z,100.00
2023-02-14T19:21:52.111Z,100.00
2023-02-14T19:24:53.814Z,100.00
2023-02-14T19:27:55.283Z,100.00
2023-02-14T19:30:59.307Z,100.00
2023-02-14T19:34:04.665Z,100.00
2023-02-14T19:37:06.404Z,100.00
2023-02-14T19:40:10.320Z,100.00
2023-02-14T19:43:11.848Z,100.00
2023-02-14T19:46:14.465Z,100.00
2023-02-14T19:49:19.219Z,100.00
2023-02-14T19:52:27.704Z,100.00
2023-02-14T19:55:29.277Z,100.00
2023-02-14T19:58:30.742Z,100.00
2023-02-14T20:01:41.377Z,100.00
2023-02-14T20:04:43.335Z,100.00
2023-02-14T20:07:44.981Z,100.00
2023-02-14T20:10:46.436Z,100.00
2023-02-14T20:13:47.979Z,100.00
2023-02-14T20:16:50.257Z,100.00
2023-02-14T20:19:52.833Z,100.00
2023-02-14T20:22:54.486Z,100.00
2023-02-14T20:25:56.157Z,100.00
2023-02-14T20:29:05.990Z,100.00
2023-02-14T20:32:07.476Z,100.00
2023-02-14T20:35:09.013Z,100.00
2023-02-14T20:38:10.681Z,100.00
2023-02-14T20:41:14.051Z,100.00
2023-02-14T20:44:19.820Z,100.00
2023-02-14T20:47:21.386Z,100.00
2023-02-14T20:50:23.072Z,100.00
2023-02-14T20:53:24.803Z,100.00
2023-02-14T20:56:26.480Z,100.00
2023-02-14T20:59:28.827Z,100.00
2023-02-14T21:02:30.459Z,100.00
2023-02-14T21:05:31.993Z,100.00
2023-02-14T21:08:33.691Z,100.00
2023-02-14T21:11:35.486Z,100.00
2023-02-14T21:14:38.200Z,100.00
2023-02-14T21:17:39.840Z,100.00
2023-02-14T21:20:41.328Z,100.00
2023-02-14T21:23:42.893Z,100.00
2023-02-14T21:26:45.147Z,100.00
2023-02-14T21:29:46.699Z,100.00
2023-02-14T21:32:48.333Z,100.00
2023-02-14T21:35:49.829Z,100.00
2023-02-14T21:38:51.979Z,100.00
2023-02-14T21:41:54.690Z,100.00
2023-02-14T21:45:14.855Z,100.00
2023-02-14T21:48:34.636Z,100.00
2023-02-14T21:51:36.239Z,100.00
2023-02-14T21:54:37.798Z,100.00
2023-02-14T21:57:39.444Z,100.00
2023-02-14T22:00:44.538Z,100.00
2023-02-14T22:03:46.148Z,100.00
2023-02-14T22:06:47.760Z,100.00
2023-02-14T22:09:49.683Z,100.00
2023-02-14T22:12:51.272Z,100.00
2023-02-14T22:15:52.819Z,100.00
2023-02-14T22:18:54.413Z,100.00
2023-02-14T22:21:55.895Z,100.00
2023-02-14T22:24:57.405Z,100.00
2023-02-14T22:27:59.045Z,100.00
2023-02-14T22:31:00.817Z,100.00
2023-02-14T22:34:04.880Z,100.00
2023-02-14T22:37:06.397Z,100.00
2023-02-14T22:40:08.478Z,100.00
2023-02-14T22:43:10.019Z,100.00
2023-02-14T22:46:17.640Z,100.00
2023-02-14T22:49:19.211Z,100.00
2023-02-14T22:52:20.731Z,100.00
2023-02-14T22:55:22.246Z,100.00
2023-02-14T22:58:23.865Z,100.00
2023-02-14T23:01:26.185Z,100.00
2023-02-14T23:04:29.789Z,100.00
2023-02-14T23:07:31.295Z,100.00
2023-02-14T23:10:33.708Z,100.00
2023-02-14T23:13:54.660Z,100.00
2023-02-14T23:17:14.832Z,100.00
2023-02-14T23:20:35.144Z,100.00
2023-02-14T23:23:36.671Z,100.00
2023-02-14T23:26:38.191Z,100.00
2023-02-14T23:29:39.869Z,100.00
2023-02-14T23:32:41.876Z,100.00
2023-02-14T23:35:43.644Z,100.00
2023-02-14T23:38:45.174Z,100.00
2023-02-14T23:41:49.920Z,100.00
2023-02-14T23:44:51.491Z,100.00
2023-02-14T23:47:52.956Z,100.00
2023-02-14T23:50:59.735Z,100.00
2023-02-14T23:54:01.541Z,100.00
2023-02-14T23:57:04.060Z,100.00
